Time;durP1;ratioP1;P1;durP2;ratioP2;P2;SDS_P1;SDS_P2;PMS_P1;PMS_P2;Temp;Humidity;BMP_temperature;BMP_pressure;BME280_temperature;BME280_humidity;BME280_pressure;Samples;Min_cycle;Max_cycle;Signal;HPM_P1;HPM_P2
2022/01/21 00:01:02;;;;;;;25.40;7.60;;;;;;;1.03;65.35;99697.11;716229;1173;113967;-75
2022/01/21 00:16:12;;;;;;;8.45;3.20;;;;;;;0.98;65.83;99692.22;715108;1174;115411;-76
2022/01/21 00:31:14;;;;;;;8.33;3.58;;;;;;;1.04;66.18;99691.84;715799;1173;115393;-76
2022/01/21 00:46:16;;;;;;;11.90;3.93;;;;;;;1.07;66.20;99686.52;715022;1174;114463;-76
2022/01/21 01:01:18;;;;;;;11.97;4.60;;;;;;;1.11;67.07;99688.00;714656;1174;115365;-76
2022/01/21 01:31:41;;;;;;;8.03;2.50;;;;;;;1.31;68.24;99688.59;715544;1174;115001;-76
2022/01/21 02:02:12;;;;;;;4.38;1.40;;;;;;;1.19;69.36;99673.79;714491;1174;114507;-76
2022/01/21 02:32:19;;;;;;;4.77;2.00;;;;;;;1.37;70.72;99693.38;714509;1174;115145;-76
2022/01/21 02:47:21;;;;;;;3.80;1.40;;;;;;;1.26;71.48;99698.37;714460;1174;115005;-76
2022/01/21 03:02:23;;;;;;;3.07;1.53;;;;;;;1.39;71.62;99708.83;714430;1174;115208;-76
2022/01/21 03:17:25;;;;;;;4.30;1.60;;;;;;;1.48;71.91;99731.55;714287;1174;114218;-76
2022/01/21 03:32:27;;;;;;;3.45;1.83;;;;;;;1.59;71.47;99747.23;714005;1174;115331;-76
2022/01/21 03:47:29;;;;;;;2.80;1.35;;;;;;;1.75;70.82;99765.25;714389;1173;114971;-77
2022/01/21 04:02:31;;;;;;;4.10;1.20;;;;;;;1.72;72.07;99804.24;714195;1174;114259;-76
2022/01/21 04:17:34;;;;;;;4.38;2.03;;;;;;;1.70;71.91;99813.83;714386;1174;114941;-75
2022/01/21 04:32:36;;;;;;;2.73;1.20;;;;;;;1.70;72.62;99826.77;714295;1174;114949;-75
2022/01/21 04:47:40;;;;;;;10.50;3.00;;;;;;;1.74;72.62;99846.38;714380;1174;115235;-76
2022/01/21 05:02:42;;;;;;;14.60;6.63;;;;;;;1.80;71.97;99846.00;714371;1174;115213;-76
2022/01/21 05:17:49;;;;;;;39.93;11.58;;;;;;;1.92;71.79;99853.98;714510;1174;114234;-75
2022/01/21 05:32:51;;;;;;;23.50;8.30;;;;;;;1.92;70.74;99870.31;714578;1174;115515;-78
2022/01/21 05:47:53;;;;;;;44.85;12.73;;;;;;;1.89;69.84;99882.59;714446;1174;115301;-76
2022/01/21 06:02:55;;;;;;;55.65;14.78;;;;;;;2.03;69.50;99882.62;714295;1174;115665;-75
2022/01/21 06:17:58;;;;;;;26.88;12.03;;;;;;;2.06;69.21;99886.78;714283;1174;113986;-77
2022/01/21 06:33:00;;;;;;;24.95;10.10;;;;;;;2.08;68.16;99906.47;714264;1174;113871;-75
2022/01/21 06:48:03;;;;;;;20.20;7.03;;;;;;;2.09;67.84;99922.85;714421;1174;115313;-75
2022/01/21 07:03:05;;;;;;;30.88;8.78;;;;;;;2.07;67.41;99940.20;714044;1173;114819;-75
2022/01/21 07:18:08;;;;;;;175.93;50.47;;;;;;;2.20;66.63;99948.92;714908;1174;114773;-75
2022/01/21 07:33:13;;;;;;;137.20;41.63;;;;;;;2.20;67.32;99968.80;715094;1174;114135;-75
2022/01/21 07:48:15;;;;;;;286.37;83.77;;;;;;;2.15;67.11;99967.32;715909;1174;115092;-73
2022/01/21 11:56:48;;;;;;;244.35;100.95;;;;;;;2.51;64.66;100084.38;715463;1171;36524;-78
2022/01/21 12:11:56;;;;;;;97.80;39.10;;;;;;;2.47;65.35;100067.34;714078;1166;283236;-76
2022/01/21 12:27:09;;;;;;;31.20;14.53;;;;;;;2.55;66.15;100090.19;714575;1174;113817;-77
2022/01/21 12:42:20;;;;;;;12.95;5.80;;;;;;;2.71;67.05;100090.98;714812;1174;114094;-78
2022/01/21 12:57:25;;;;;;;10.83;3.77;;;;;;;2.70;66.63;100094.48;715708;1174;114762;-77
2022/01/21 13:28:11;;;;;;;9.18;3.85;;;;;;;2.56;66.70;100099.63;715404;1174;113616;-78
2022/01/21 13:43:18;;;;;;;12.28;6.03;;;;;;;2.58;66.13;100110.75;716150;1174;115005;-78
2022/01/21 13:58:27;;;;;;;23.50;10.93;;;;;;;2.52;64.96;100127.48;717026;1174;114240;-78
2022/01/21 14:13:34;;;;;;;38.95;14.03;;;;;;;2.44;64.57;100150.36;715194;1174;115294;-78
2022/01/21 14:28:51;;;;;;;24.45;7.73;;;;;;;2.34;64.29;100168.19;714126;1174;114657;-79
2022/01/21 14:43:56;;;;;;;28.48;8.10;;;;;;;2.30;65.50;100174.45;714024;1174;115132;-78
2022/01/21 14:59:13;;;;;;;34.23;10.00;;;;;;;2.24;65.13;100190.31;714661;1174;114439;-78
2022/01/21 15:29:26;;;;;;;29.45;11.35;;;;;;;2.02;65.21;100193.23;714754;1174;115411;-77
2022/01/21 15:44:30;;;;;;;61.97;20.40;;;;;;;2.06;64.94;100200.76;715149;1174;118011;-77
2022/01/21 15:59:34;;;;;;;37.10;12.73;;;;;;;2.06;63.54;100210.26;714460;1174;115426;-76
2022/01/21 16:14:36;;;;;;;25.13;8.17;;;;;;;1.98;62.53;100195.17;714523;1174;115590;-77
2022/01/21 16:29:39;;;;;;;21.27;8.70;;;;;;;1.97;62.38;100203.84;714321;1174;114627;-77
2022/01/21 16:44:41;;;;;;;39.83;14.48;;;;;;;1.89;62.32;100187.87;714684;1174;114606;-76
2022/01/21 16:59:45;;;;;;;75.98;18.13;;;;;;;1.57;62.42;100182.65;714563;1174;114999;-79
2022/01/21 17:14:52;;;;;;;75.30;29.03;;;;;;;1.34;62.67;100187.27;714978;1173;115553;-77
2022/01/21 17:29:54;;;;;;;437.25;137.43;;;;;;;1.15;63.71;100203.70;714896;1174;114622;-77
2022/01/21 17:44:58;;;;;;;358.47;119.33;;;;;;;1.08;64.29;100202.35;714860;1174;116142;-79
2022/01/21 18:00:04;;;;;;;166.80;55.60;;;;;;;1.15;66.51;100208.88;714800;1174;115012;-77
2022/01/21 18:15:07;;;;;;;73.85;32.45;;;;;;;1.09;66.84;100211.75;714495;1174;115991;-77
2022/01/21 18:30:11;;;;;;;85.63;29.80;;;;;;;0.79;66.74;100199.45;714784;1174;115488;-76
2022/01/21 18:45:44;;;;;;;77.00;28.28;;;;;;;0.55;67.02;100196.29;714369;1174;115535;-74
2022/01/21 19:00:47;;;;;;;42.93;17.60;;;;;;;0.46;66.91;100194.14;714613;1173;115962;-76
2022/01/21 19:15:50;;;;;;;31.80;14.48;;;;;;;0.26;67.34;100205.41;714763;1174;115503;-75
2022/01/21 19:30:55;;;;;;;72.95;30.38;;;;;;;0.14;68.52;100204.23;714824;1173;114137;-75
2022/01/21 19:46:01;;;;;;;37.78;16.78;;;;;;;0.05;69.43;100210.64;714268;1173;114083;-78
2022/01/21 20:01:34;;;;;;;56.30;19.78;;;;;;;0.00;70.71;100212.61;714889;1174;114195;-77
2022/01/21 20:16:37;;;;;;;168.58;55.38;;;;;;;0.11;72.04;100232.77;714606;1174;115335;-78
2022/01/21 20:31:46;;;;;;;47.40;20.40;;;;;;;0.09;74.28;100214.78;714162;1174;115201;-79
2022/01/21 20:46:58;;;;;;;75.40;24.80;;;;;;;0.23;74.18;100229.61;714292;1174;115290;-79
2022/01/21 21:02:01;;;;;;;38.10;14.55;;;;;;;0.13;75.97;100216.31;715444;1173;114452;-79
2022/01/21 21:17:52;;;;;;;77.63;24.73;;;;;;;0.12;77.74;100214.63;715239;1174;115580;-75
2022/01/21 22:33:59;;;;;;;28.57;12.13;;;;;;;-0.02;78.85;100258.27;714714;1173;114322;-76
2022/01/21 23:04:21;;;;;;;29.13;9.40;;;;;;;0.09;79.65;100248.31;714128;1174;115039;-74
2022/01/21 23:19:23;;;;;;;15.13;5.45;;;;;;;-0.17;79.69;100258.03;713962;1174;115510;-74
2022/01/21 23:34:39;;;;;;;12.28;5.30;;;;;;;-0.42;80.90;100250.53;714569;1173;114059;-75
2022/01/21 23:49:56;;;;;;;13.68;6.98;;;;;;;-0.45;80.56;100250.67;714268;1174;115480;-74
